createdAt,value
2022-07-29T00:00:10.999Z,11.20
2022-07-29T00:02:58.339Z,6.78
2022-07-29T00:05:25.971Z,11.13
2022-07-29T00:07:53.088Z,11.93
2022-07-29T00:10:22.513Z,13.20
2022-07-29T00:12:49.973Z,6.97
2022-07-29T00:15:17.299Z,11.25
2022-07-29T00:17:44.497Z,9.13
2022-07-29T00:20:12.193Z,8.27
2022-07-29T00:22:40.261Z,10.73
2022-07-29T00:25:09.215Z,11.38
2022-07-29T00:27:37.645Z,12.00
2022-07-29T00:30:06.257Z,13.88
2022-07-29T00:32:33.522Z,9.20
2022-07-29T00:35:19.983Z,11.63
2022-07-29T00:37:47.272Z,6.63
2022-07-29T00:40:14.651Z,9.75
2022-07-29T00:42:49.808Z,10.13
2022-07-29T00:45:17.912Z,8.38
2022-07-29T00:47:45.973Z,7.28
2022-07-29T00:50:14.463Z,11.07
2022-07-29T00:52:43.080Z,9.63
2022-07-29T00:55:16.103Z,9.32
2022-07-29T00:57:44.829Z,8.60
2022-07-29T01:00:18.433Z,8.00
2022-07-29T01:02:49.265Z,11.10
2022-07-29T01:05:19.779Z,10.77
2022-07-29T01:07:48.062Z,6.90
2022-07-29T01:10:16.103Z,10.77
2022-07-29T01:12:44.905Z,12.20
2022-07-29T01:15:12.476Z,10.25
2022-07-29T01:18:18.290Z,7.65
2022-07-29T01:20:56.937Z,12.75
2022-07-29T01:23:45.717Z,9.00
2022-07-29T01:26:22.430Z,10.18
2022-07-29T01:28:59.230Z,7.90
2022-07-29T01:31:36.597Z,10.38
2022-07-29T01:34:10.112Z,6.90
2022-07-29T01:36:50.256Z,6.85
2022-07-29T01:39:21.194Z,10.85
2022-07-29T01:42:08.762Z,7.18
2022-07-29T01:44:41.167Z,9.38
2022-07-29T01:47:13.875Z,7.38
2022-07-29T01:49:44.539Z,7.82
2022-07-29T01:52:21.520Z,10.70
2022-07-29T01:54:57.354Z,9.60
2022-07-29T01:57:28.257Z,10.85
2022-07-29T01:59:55.983Z,15.00
2022-07-29T02:02:23.767Z,8.30
2022-07-29T02:04:51.342Z,10.43
2022-07-29T02:07:21.291Z,8.68
2022-07-29T02:09:49.299Z,12.02
2022-07-29T02:12:19.245Z,10.65
2022-07-29T02:14:49.932Z,15.60
2022-07-29T02:17:22.959Z,11.60
2022-07-29T02:19:50.547Z,10.52
2022-07-29T02:22:19.806Z,15.45
2022-07-29T02:24:48.720Z,9.57
2022-07-29T02:27:16.832Z,11.38
2022-07-29T02:29:44.381Z,9.35
2022-07-29T02:32:12.610Z,9.70
2022-07-29T02:34:41.117Z,11.23
2022-07-29T02:37:10.663Z,7.90
2022-07-29T02:39:38.730Z,11.57
2022-07-29T02:42:08.831Z,10.50
2022-07-29T02:44:36.184Z,10.07
2022-07-29T02:47:18.744Z,9.00
2022-07-29T02:50:12.601Z,9.07
2022-07-29T02:52:45.609Z,11.77
2022-07-29T02:55:37.213Z,12.95
2022-07-29T02:58:29.301Z,10.43
2022-07-29T03:01:06.459Z,11.88
2022-07-29T03:03:37.825Z,11.60
2022-07-29T03:06:06.351Z,13.65
2022-07-29T03:08:33.894Z,8.65
2022-07-29T03:11:02.279Z,8.95
2022-07-29T03:13:30.661Z,9.70
2022-07-29T03:15:59.067Z,9.35
2022-07-29T03:18:26.979Z,10.52
2022-07-29T03:20:54.310Z,10.52
2022-07-29T03:23:23.778Z,13.18
2022-07-29T03:25:51.819Z,10.48
2022-07-29T03:28:20.504Z,10.52
2022-07-29T03:30:49.776Z,10.40
2022-07-29T03:33:17.270Z,10.88
2022-07-29T03:35:44.461Z,11.98
2022-07-29T03:38:11.640Z,13.07
2022-07-29T03:40:44.455Z,9.85
2022-07-29T03:43:12.411Z,11.07
2022-07-29T03:45:40.250Z,13.23
2022-07-29T03:48:10.045Z,7.80
2022-07-29T03:50:37.496Z,7.00
2022-07-29T03:53:04.943Z,14.77
2022-07-29T03:55:43.526Z,7.22
2022-07-29T03:58:12.096Z,9.93
2022-07-29T04:00:39.928Z,11.68
2022-07-29T04:03:10.680Z,10.02
2022-07-29T04:05:39.535Z,9.48
2022-07-29T04:08:06.841Z,12.10
2022-07-29T04:10:34.248Z,10.60
2022-07-29T04:13:03.342Z,10.32
2022-07-29T04:15:31.865Z,8.60
2022-07-29T04:18:00.181Z,10.07
2022-07-29T04:20:27.954Z,11.75
2022-07-29T04:22:55.311Z,12.52
2022-07-29T04:25:22.598Z,13.18
2022-07-29T04:28:01.775Z,9.80
2022-07-29T04:30:30.144Z,11.80
2022-07-29T04:32:57.383Z,9.13
2022-07-29T04:35:24.684Z,6.95
2022-07-29T04:37:51.994Z,7.63
2022-07-29T04:40:19.417Z,8.88
2022-07-29T04:42:47.791Z,10.07
2022-07-29T04:45:16.086Z,8.30
2022-07-29T04:47:43.378Z,5.97
2022-07-29T04:50:10.994Z,8.20
2022-07-29T04:52:38.551Z,6.45
2022-07-29T04:55:06.508Z,8.07
2022-07-29T04:57:33.687Z,9.68
2022-07-29T05:00:01.234Z,7.90
2022-07-29T05:02:28.482Z,7.25
2022-07-29T05:04:55.687Z,7.70
2022-07-29T05:07:23.281Z,7.45
2022-07-29T05:09:50.455Z,7.38
2022-07-29T05:12:19.805Z,6.55
2022-07-29T05:14:47.152Z,5.13
2022-07-29T05:17:14.474Z,8.52
2022-07-29T05:19:41.784Z,5.20
2022-07-29T05:22:09.489Z,6.05
2022-07-29T05:24:36.712Z,5.20
2022-07-29T05:27:03.930Z,5.43
2022-07-29T05:29:44.153Z,3.20
2022-07-29T05:32:13.733Z,3.05
2022-07-29T05:34:50.825Z,3.85
2022-07-29T05:37:21.871Z,3.03
2022-07-29T05:39:56.190Z,5.57
2022-07-29T05:42:25.321Z,9.60
2022-07-29T05:44:53.274Z,3.08
2022-07-29T05:47:20.393Z,1.65
2022-07-29T05:49:47.603Z,3.67
2022-07-29T05:52:15.417Z,5.38
2022-07-29T05:54:42.625Z,2.53
2022-07-29T05:57:10.054Z,2.80
2022-07-29T05:59:38.242Z,4.60
2022-07-29T06:02:06.156Z,3.40
2022-07-29T06:04:34.741Z,2.90
2022-07-29T06:07:02.868Z,5.65
2022-07-29T06:09:30.585Z,3.35
2022-07-29T06:11:58.916Z,6.07
2022-07-29T06:14:27.554Z,7.80
2022-07-29T06:16:54.947Z,4.32
2022-07-29T06:19:22.254Z,5.05
2022-07-29T06:21:51.179Z,2.10
2022-07-29T06:24:19.059Z,3.40
2022-07-29T06:26:46.641Z,3.25
2022-07-29T06:29:14.156Z,4.93
2022-07-29T06:31:41.533Z,4.65
2022-07-29T06:34:08.820Z,1.92
2022-07-29T06:36:39.828Z,1.85
2022-07-29T06:39:09.128Z,3.60
2022-07-29T06:41:36.753Z,4.45
2022-07-29T06:44:10.417Z,2.05
2022-07-29T06:46:37.741Z,2.53
2022-07-29T06:49:05.919Z,9.45
2022-07-29T06:51:33.383Z,2.95
2022-07-29T06:54:03.362Z,1.38
2022-07-29T06:56:38.605Z,4.85
2022-07-29T06:59:10.812Z,3.65
2022-07-29T07:01:39.540Z,2.85
2022-07-29T07:04:07.134Z,3.42
2022-07-29T07:06:34.664Z,5.57
2022-07-29T07:09:02.200Z,1.55
2022-07-29T07:11:29.789Z,5.20
2022-07-29T07:14:02.453Z,5.43
2022-07-29T07:16:30.837Z,3.72
2022-07-29T07:18:58.234Z,5.10
2022-07-29T07:21:25.518Z,5.13
2022-07-29T07:23:52.659Z,1.90
2022-07-29T07:26:20.185Z,1.70
2022-07-29T07:28:47.329Z,4.15
2022-07-29T07:31:15.243Z,1.45
2022-07-29T07:33:42.762Z,4.95
2022-07-29T07:36:09.972Z,4.10
2022-07-29T07:38:37.068Z,1.70
2022-07-29T07:41:04.614Z,3.60
2022-07-29T07:43:31.927Z,2.30
2022-07-29T07:45:59.354Z,3.83
2022-07-29T07:48:26.839Z,2.70
2022-07-29T07:50:54.069Z,1.20
2022-07-29T07:53:22.207Z,2.17
2022-07-29T07:58:37.304Z,3.33
2022-07-29T08:01:04.797Z,4.03
2022-07-29T08:03:31.928Z,5.65
2022-07-29T08:05:59.480Z,2.65
2022-07-29T08:08:26.779Z,1.77
2022-07-29T08:10:53.932Z,2.55
2022-07-29T08:13:22.754Z,3.45
2022-07-29T08:15:58.856Z,4.28
2022-07-29T08:18:27.452Z,1.40
2022-07-29T08:20:55.171Z,1.45
2022-07-29T08:23:23.744Z,6.97
2022-07-29T08:25:52.583Z,4.18
2022-07-29T08:28:25.756Z,2.85
2022-07-29T08:30:53.694Z,6.82
2022-07-29T08:33:20.927Z,2.70
2022-07-29T08:35:48.239Z,2.78
2022-07-29T08:38:15.651Z,4.07
2022-07-29T08:40:43.003Z,1.30
2022-07-29T08:43:10.601Z,2.30
2022-07-29T08:45:44.822Z,3.47
2022-07-29T08:48:21.585Z,3.85
2022-07-29T08:50:51.450Z,4.38
2022-07-29T08:53:19.771Z,2.58
2022-07-29T08:55:49.255Z,15.57
2022-07-29T08:58:17.868Z,3.60
2022-07-29T09:00:56.969Z,1.45
2022-07-29T09:03:27.311Z,4.45
2022-07-29T09:05:54.992Z,5.38
2022-07-29T09:08:22.440Z,4.72
2022-07-29T09:10:50.274Z,4.72
2022-07-29T09:13:17.714Z,4.07
2022-07-29T09:15:45.571Z,3.60
2022-07-29T09:18:19.501Z,2.85
2022-07-29T09:21:16.454Z,4.43
2022-07-29T09:24:00.634Z,4.57
2022-07-29T09:26:32.499Z,7.78
2022-07-29T09:29:00.452Z,3.60
2022-07-29T09:31:36.315Z,6.32
2022-07-29T09:34:04.881Z,3.17
2022-07-29T09:36:32.210Z,1.52
2022-07-29T09:39:04.188Z,6.72
2022-07-29T09:41:45.459Z,1.52
2022-07-29T09:44:12.753Z,3.17
2022-07-29T09:46:40.366Z,1.65
2022-07-29T09:49:13.445Z,4.53
2022-07-29T09:51:41.425Z,4.20
2022-07-29T09:54:28.653Z,3.13
2022-07-29T09:56:56.919Z,1.92
2022-07-29T09:59:27.597Z,1.80
2022-07-29T10:01:55.482Z,2.05
2022-07-29T10:04:23.327Z,4.80
2022-07-29T10:07:04.856Z,4.22
2022-07-29T10:09:34.302Z,3.17
2022-07-29T10:12:08.120Z,3.92
2022-07-29T10:14:35.660Z,3.20
2022-07-29T10:17:04.628Z,5.35
2022-07-29T10:19:32.613Z,1.23
2022-07-29T10:22:00.882Z,4.25
2022-07-29T10:24:29.059Z,1.90
2022-07-29T10:26:56.906Z,4.00
2022-07-29T10:29:26.023Z,2.45
2022-07-29T10:32:23.945Z,2.63
2022-07-29T10:35:29.024Z,5.10
2022-07-29T10:38:17.469Z,3.00
2022-07-29T10:41:19.446Z,5.53
2022-07-29T10:43:48.073Z,4.97
2022-07-29T10:46:19.563Z,1.20
2022-07-29T10:49:15.303Z,5.50
2022-07-29T10:52:06.773Z,1.70
2022-07-29T10:54:44.109Z,3.05
2022-07-29T11:00:16.866Z,3.30
2022-07-29T11:02:46.932Z,2.55
2022-07-29T11:05:20.182Z,3.13
2022-07-29T11:08:26.023Z,1.05
2022-07-29T11:11:19.956Z,8.05
2022-07-29T11:13:52.315Z,2.30
2022-07-29T11:16:23.131Z,2.15
2022-07-29T11:19:11.326Z,2.72
2022-07-29T11:21:53.715Z,4.05
2022-07-29T11:27:18.160Z,2.90
2022-07-29T11:30:06.184Z,2.55
2022-07-29T11:32:40.066Z,1.83
2022-07-29T11:35:17.548Z,3.30
2022-07-29T11:37:52.225Z,3.38
2022-07-29T11:40:23.094Z,1.63
2022-07-29T11:42:51.911Z,3.08
2022-07-29T11:51:12.077Z,1.58
2022-07-29T11:53:40.925Z,8.27
2022-07-29T11:56:10.389Z,2.72
2022-07-29T11:58:38.302Z,2.40
2022-07-29T12:01:07.319Z,0.90
2022-07-29T12:03:36.874Z,2.97
2022-07-29T12:06:13.472Z,4.03
2022-07-29T12:07:03.911Z,2.17
2022-07-29T12:08:43.627Z,4.20
2022-07-29T12:11:23.388Z,2.40
2022-07-29T12:13:52.169Z,2.10
2022-07-29T12:16:26.080Z,4.78
2022-07-29T12:19:02.142Z,5.35
2022-07-29T12:24:05.758Z,8.38
2022-07-29T12:26:36.620Z,1.33
2022-07-29T12:29:11.329Z,3.10
2022-07-29T12:31:43.256Z,1.45
2022-07-29T12:34:14.232Z,3.00
2022-07-29T12:36:43.106Z,6.63
2022-07-29T12:39:11.641Z,3.30
2022-07-29T12:41:40.018Z,2.45
2022-07-29T12:44:07.369Z,1.77
2022-07-29T12:46:34.682Z,1.85
2022-07-29T12:49:04.157Z,8.52
2022-07-29T12:51:37.742Z,2.45
2022-07-29T12:54:14.478Z,4.53
2022-07-29T12:56:44.295Z,2.78
2022-07-29T12:59:21.065Z,1.42
2022-07-29T13:01:50.442Z,4.40
2022-07-29T13:04:31.742Z,1.50
2022-07-29T13:07:10.454Z,3.17
2022-07-29T13:09:39.053Z,1.50
2022-07-29T13:12:11.197Z,1.02
2022-07-29T13:14:40.719Z,1.13
2022-07-29T13:17:22.395Z,1.52
2022-07-29T13:19:54.654Z,1.80
2022-07-29T13:22:23.818Z,6.50
2022-07-29T13:24:55.077Z,4.70
2022-07-29T13:27:24.534Z,3.97
2022-07-29T13:29:57.403Z,1.60
2022-07-29T13:32:28.745Z,6.25
2022-07-29T13:34:57.681Z,3.70
2022-07-29T13:37:25.216Z,3.42
2022-07-29T13:39:53.614Z,6.60
2022-07-29T13:42:20.973Z,2.55
2022-07-29T13:44:49.671Z,1.88
2022-07-29T13:47:17.349Z,3.53
2022-07-29T13:49:44.901Z,1.42
2022-07-29T13:52:12.114Z,1.90
2022-07-29T13:54:42.353Z,3.20
2022-07-29T13:57:14.105Z,1.73
2022-07-29T13:59:42.998Z,2.88
2022-07-29T14:02:11.428Z,3.90
2022-07-29T14:04:39.689Z,3.08
2022-07-29T14:07:07.474Z,2.05
2022-07-29T14:09:41.089Z,5.00
2022-07-29T14:12:09.682Z,5.13
2022-07-29T14:14:37.771Z,3.22
2022-07-29T14:17:07.598Z,1.92
2022-07-29T14:19:39.357Z,2.03
2022-07-29T14:22:08.523Z,2.47
2022-07-29T14:24:37.702Z,2.95
2022-07-29T14:27:08.905Z,2.60
2022-07-29T14:29:37.765Z,4.00
2022-07-29T14:32:08.201Z,2.45
2022-07-29T14:34:39.132Z,4.18
2022-07-29T14:37:07.267Z,2.53
2022-07-29T14:39:42.677Z,3.55
2022-07-29T14:42:12.767Z,3.05
2022-07-29T14:44:42.099Z,4.53
2022-07-29T14:47:09.552Z,2.38
2022-07-29T14:49:37.223Z,1.63
2022-07-29T14:52:05.318Z,1.48
2022-07-29T14:54:32.452Z,1.05
2022-07-29T14:56:59.969Z,1.40
2022-07-29T14:59:27.446Z,5.90
2022-07-29T15:01:54.933Z,4.00
2022-07-29T15:04:22.709Z,1.50
2022-07-29T15:06:50.237Z,2.83
2022-07-29T15:09:17.517Z,1.27
2022-07-29T15:11:45.330Z,2.33
2022-07-29T15:14:12.559Z,1.75
2022-07-29T15:16:41.923Z,1.27
2022-07-29T15:19:12.069Z,2.08
2022-07-29T15:21:41.448Z,2.30
2022-07-29T15:24:17.433Z,5.15
2022-07-29T15:26:45.657Z,2.72
2022-07-29T15:29:13.057Z,2.30
2022-07-29T15:31:40.673Z,3.50
2022-07-29T15:34:08.778Z,1.45
2022-07-29T15:36:51.467Z,2.50
2022-07-29T15:39:21.097Z,2.45
2022-07-29T15:41:48.425Z,1.83
2022-07-29T15:44:15.651Z,1.52
2022-07-29T15:47:02.199Z,0.93
2022-07-29T15:49:47.763Z,4.18
2022-07-29T15:52:26.215Z,2.08
2022-07-29T15:54:57.998Z,2.45
2022-07-29T15:57:25.765Z,1.70
2022-07-29T15:59:53.354Z,1.73
2022-07-29T16:02:20.764Z,1.67
2022-07-29T16:04:48.347Z,9.95
2022-07-29T16:07:15.791Z,3.20
2022-07-29T16:09:45.469Z,2.63
2022-07-29T16:12:18.786Z,2.97
2022-07-29T16:14:46.004Z,8.85
2022-07-29T16:17:14.494Z,2.85
2022-07-29T16:19:43.526Z,5.53
2022-07-29T16:22:11.526Z,6.60
2022-07-29T16:24:39.485Z,4.43
2022-07-29T16:27:07.542Z,2.10
2022-07-29T16:29:34.850Z,3.80
2022-07-29T16:32:02.160Z,1.83
2022-07-29T16:34:29.747Z,1.90
2022-07-29T16:36:56.942Z,1.95
2022-07-29T16:39:23.979Z,3.53
2022-07-29T16:41:51.592Z,1.83
2022-07-29T16:44:18.753Z,1.02
2022-07-29T16:46:45.955Z,1.90
2022-07-29T16:49:18.360Z,1.55
2022-07-29T16:51:47.959Z,1.98
2022-07-29T16:54:15.606Z,1.88
2022-07-29T16:56:42.803Z,3.05
2022-07-29T16:59:09.922Z,4.82
2022-07-29T17:01:37.619Z,2.72
2022-07-29T17:04:07.912Z,3.35
2022-07-29T17:06:39.866Z,2.45
2022-07-29T17:09:10.253Z,3.05
2022-07-29T17:11:52.781Z,1.65
2022-07-29T17:14:30.532Z,2.28
2022-07-29T17:17:03.275Z,3.15
2022-07-29T17:19:32.828Z,1.90
2022-07-29T17:22:09.396Z,2.25
2022-07-29T17:24:40.262Z,5.57
2022-07-29T17:27:09.339Z,3.83
2022-07-29T17:29:36.855Z,2.55
2022-07-29T17:32:07.543Z,3.03
2022-07-29T17:34:36.657Z,2.22
2022-07-29T17:37:05.678Z,5.10
2022-07-29T17:39:35.152Z,4.05
2022-07-29T17:42:03.870Z,2.33
2022-07-29T17:44:31.389Z,3.92
2022-07-29T17:47:04.740Z,2.85
2022-07-29T17:49:32.046Z,2.50
2022-07-29T17:52:01.049Z,5.57
2022-07-29T17:54:28.923Z,2.78
2022-07-29T17:56:56.338Z,6.38
2022-07-29T17:59:23.823Z,9.05
2022-07-29T18:01:51.380Z,4.53
2022-07-29T18:04:21.127Z,7.72
2022-07-29T18:06:48.458Z,2.38
2022-07-29T18:09:15.933Z,2.95
2022-07-29T18:11:44.558Z,2.13
2022-07-29T18:14:13.553Z,5.15
2022-07-29T18:16:41.422Z,6.88
2022-07-29T18:19:08.809Z,4.28
2022-07-29T18:21:43.572Z,6.90
2022-07-29T18:24:27.600Z,1.75
2022-07-29T18:26:55.351Z,3.03
2022-07-29T18:29:22.654Z,2.88
2022-07-29T18:31:50.338Z,6.57
2022-07-29T18:34:17.973Z,8.43
2022-07-29T18:36:46.043Z,1.48
2022-07-29T18:39:19.671Z,4.28
2022-07-29T18:41:51.890Z,2.10
2022-07-29T18:44:21.950Z,1.75
2022-07-29T18:46:51.623Z,6.50
2022-07-29T18:49:19.275Z,4.60
2022-07-29T18:51:47.007Z,4.07
2022-07-29T18:54:14.290Z,4.63
2022-07-29T18:56:41.434Z,2.67
2022-07-29T18:59:08.889Z,4.45
2022-07-29T19:01:37.863Z,5.40
2022-07-29T19:04:05.348Z,4.15
2022-07-29T19:06:32.889Z,4.32
2022-07-29T19:09:00.271Z,2.78
2022-07-29T19:11:27.450Z,2.90
2022-07-29T19:13:54.966Z,6.35
2022-07-29T19:16:22.277Z,6.88
2022-07-29T19:18:49.571Z,5.78
2022-07-29T19:21:17.388Z,7.20
2022-07-29T19:24:05.220Z,3.20
2022-07-29T19:26:36.511Z,4.57
2022-07-29T19:29:04.386Z,2.58
2022-07-29T19:31:31.735Z,5.75
2022-07-29T19:33:59.294Z,4.50
2022-07-29T19:36:27.321Z,8.45
2022-07-29T19:38:54.524Z,3.05
2022-07-29T19:41:21.875Z,7.60
2022-07-29T19:43:50.632Z,2.55
2022-07-29T19:46:23.519Z,4.30
2022-07-29T19:48:52.946Z,7.55
2022-07-29T19:51:20.233Z,6.70
2022-07-29T19:53:47.494Z,2.67
2022-07-29T19:56:15.179Z,4.72
2022-07-29T19:58:44.152Z,9.10
2022-07-29T20:01:12.620Z,3.45
2022-07-29T20:03:40.346Z,8.30
2022-07-29T20:06:07.879Z,5.80
2022-07-29T20:08:35.038Z,2.80
2022-07-29T20:11:03.429Z,3.60
2022-07-29T20:13:33.058Z,7.45
2022-07-29T20:16:01.244Z,2.70
2022-07-29T20:18:28.862Z,5.85
2022-07-29T20:20:57.601Z,6.28
2022-07-29T20:23:25.011Z,7.55
2022-07-29T20:25:52.675Z,2.65
2022-07-29T20:28:22.415Z,4.63
2022-07-29T20:30:49.722Z,2.95
2022-07-29T20:33:17.166Z,4.60
2022-07-29T20:35:44.352Z,2.35
2022-07-29T20:38:13.976Z,7.32
2022-07-29T20:40:45.439Z,3.22
2022-07-29T20:43:12.682Z,7.82
2022-07-29T20:45:40.066Z,5.60
2022-07-29T20:48:08.306Z,3.97
2022-07-29T20:50:35.997Z,3.22
2022-07-29T20:53:03.479Z,4.60
2022-07-29T20:55:32.167Z,4.55
2022-07-29T20:57:59.361Z,3.20
2022-07-29T21:00:26.651Z,3.00
2022-07-29T21:02:54.284Z,5.25
2022-07-29T21:05:21.512Z,3.10
2022-07-29T21:07:48.888Z,3.65
2022-07-29T21:10:18.287Z,3.10
2022-07-29T21:12:48.731Z,4.03
2022-07-29T21:15:16.353Z,5.47
2022-07-29T21:17:47.343Z,4.05
2022-07-29T21:20:16.272Z,4.25
2022-07-29T21:22:43.393Z,4.95
2022-07-29T21:25:11.493Z,2.97
2022-07-29T21:27:57.305Z,4.95
2022-07-29T21:30:24.784Z,7.82
2022-07-29T21:32:51.986Z,13.10
2022-07-29T21:36:02.118Z,4.95
2022-07-29T21:38:06.532Z,5.97
2022-07-29T21:40:33.727Z,9.15
2022-07-29T21:43:00.955Z,3.92
2022-07-29T21:45:28.562Z,4.20
2022-07-29T21:47:55.806Z,4.60
2022-07-29T21:50:22.953Z,4.45
2022-07-29T21:52:50.301Z,3.20
2022-07-29T21:55:18.609Z,5.00
2022-07-29T21:57:46.581Z,5.05
2022-07-29T22:00:17.134Z,2.67
2022-07-29T22:02:45.053Z,3.20
2022-07-29T22:05:12.538Z,3.33
2022-07-29T22:07:56.208Z,2.78
2022-07-29T22:10:29.513Z,6.75
2022-07-29T22:12:58.406Z,3.80
2022-07-29T22:15:26.465Z,5.28
2022-07-29T22:17:53.820Z,4.68
2022-07-29T22:20:21.616Z,4.47
2022-07-29T22:22:48.927Z,3.95
2022-07-29T22:25:16.650Z,2.13
2022-07-29T22:27:44.525Z,2.60
2022-07-29T22:30:12.222Z,7.95
2022-07-29T22:32:39.845Z,2.17
2022-07-29T22:35:07.636Z,3.95
2022-07-29T22:37:34.913Z,4.55
2022-07-29T22:40:02.370Z,4.28
2022-07-29T22:42:30.495Z,3.80
2022-07-29T22:44:57.621Z,3.20
2022-07-29T22:47:46.062Z,4.72
2022-07-29T22:50:12.318Z,2.17
2022-07-29T22:52:39.493Z,5.85
2022-07-29T22:55:07.250Z,2.22
2022-07-29T22:57:34.800Z,3.97
2022-07-29T23:00:02.438Z,1.80
2022-07-29T23:02:29.804Z,3.80
2022-07-29T23:04:57.454Z,4.15
2022-07-29T23:07:24.587Z,5.20
2022-07-29T23:09:52.047Z,3.05
2022-07-29T23:12:19.371Z,2.67
2022-07-29T23:14:46.603Z,2.33
2022-07-29T23:17:13.930Z,5.78
2022-07-29T23:19:41.243Z,3.45
2022-07-29T23:22:08.762Z,3.08
2022-07-29T23:24:35.851Z,2.97
2022-07-29T23:27:03.800Z,3.10
2022-07-29T23:29:36.238Z,7.45
2022-07-29T23:34:31.391Z,2.72
2022-07-29T23:36:59.191Z,3.08
2022-07-29T23:39:26.801Z,2.92
2022-07-29T23:41:53.974Z,6.78
2022-07-29T23:44:21.390Z,3.38
2022-07-29T23:46:48.889Z,4.78
2022-07-29T23:49:16.318Z,4.32
2022-07-29T23:51:43.588Z,3.25
2022-07-29T23:54:11.062Z,2.97
2022-07-29T23:56:38.303Z,8.27
2022-07-29T23:59:05.939Z,2.88
